createdAt,value
2023-04-03T00:00:32.704Z,73446.75
2023-04-03T00:01:08.230Z,73444.75
2023-04-03T00:01:40.605Z,73450.72
2023-04-03T00:02:13.079Z,73440.75
2023-04-03T00:02:46.007Z,73448.75
2023-04-03T00:03:21.572Z,73440.75
2023-04-03T00:03:54.236Z,73438.75
2023-04-03T00:04:26.785Z,73442.75
2023-04-03T00:05:01.877Z,73440.75
2023-04-03T00:05:34.706Z,73442.75
2023-04-03T00:06:08.315Z,73440.75
2023-04-03T00:06:43.239Z,73436.75
2023-04-03T00:07:16.190Z,73444.75
2023-04-03T00:07:48.573Z,73432.75
2023-04-03T00:08:23.646Z,73440.75
2023-04-03T00:08:56.116Z,73442.75
2023-04-03T00:09:31.352Z,73440.75
2023-04-03T00:10:06.926Z,73438.75
2023-04-03T00:10:39.676Z,73444.75
2023-04-03T00:11:12.325Z,73438.75
2023-04-03T00:11:47.267Z,73444.75
2023-04-03T00:12:19.602Z,73438.75
2023-04-03T00:12:51.940Z,73442.75
2023-04-03T00:13:26.965Z,73440.75
2023-04-03T00:13:59.275Z,73436.75
2023-04-03T00:14:31.754Z,73438.75
2023-04-03T00:15:07.363Z,73436.75
2023-04-03T00:15:40.179Z,73440.75
2023-04-03T00:16:13.280Z,73432.75
2023-04-03T00:16:48.334Z,73430.78
2023-04-03T00:17:20.727Z,73436.75
2023-04-03T00:17:53.139Z,73436.75
2023-04-03T00:18:25.793Z,73436.75
2023-04-03T00:19:00.729Z,73438.75
2023-04-03T00:19:33.238Z,73436.75
2023-04-03T00:20:07.073Z,73432.75
2023-04-03T00:20:39.754Z,73436.75
2023-04-03T00:21:16.744Z,73434.75
2023-04-03T00:21:49.224Z,73440.75
2023-04-03T00:22:21.580Z,73436.75
2023-04-03T00:22:56.526Z,73434.75
2023-04-03T00:23:28.867Z,73440.75
2023-04-03T00:24:01.437Z,73432.75
2023-04-03T00:24:39.044Z,73436.75
2023-04-03T00:25:11.428Z,73438.75
2023-04-03T00:25:43.986Z,73436.75
2023-04-03T00:26:18.951Z,73440.75
2023-04-03T00:26:51.617Z,73436.75
2023-04-03T00:27:24.047Z,73440.75
2023-04-03T00:27:59.309Z,73440.75
2023-04-03T00:28:31.783Z,73436.75
2023-04-03T00:29:06.839Z,73440.75
2023-04-03T00:29:39.232Z,73432.75
2023-04-03T00:30:14.393Z,73440.75
2023-04-03T00:30:49.372Z,73440.75
2023-04-03T00:31:21.827Z,73442.75
2023-04-03T00:31:54.170Z,73444.75
2023-04-03T00:32:29.125Z,73448.75
2023-04-03T00:33:01.871Z,73438.75
2023-04-03T00:33:34.310Z,73442.75
2023-04-03T00:34:09.380Z,73444.75
2023-04-03T00:34:41.732Z,73440.75
2023-04-03T00:35:16.846Z,73444.75
2023-04-03T00:35:49.556Z,73442.75
2023-04-03T00:36:24.782Z,73442.75
2023-04-03T00:36:57.482Z,73442.75
2023-04-03T00:37:31.940Z,73446.75
2023-04-03T00:38:06.890Z,73436.75
2023-04-03T00:38:39.443Z,73444.75
2023-04-03T00:39:11.892Z,73440.75
2023-04-03T00:39:49.482Z,73444.75
2023-04-03T00:40:22.553Z,73440.75
2023-04-03T00:40:54.956Z,73440.75
2023-04-03T00:41:30.228Z,73442.75
2023-04-03T00:42:02.828Z,73438.75
2023-04-03T00:42:35.581Z,73440.75
2023-04-03T00:43:16.011Z,73448.75
2023-04-03T00:43:48.954Z,73448.75
2023-04-03T00:44:22.685Z,73440.75
2023-04-03T00:45:29.321Z,73448.75
2023-04-03T00:46:01.935Z,73442.75
2023-04-03T00:46:36.928Z,73442.75
2023-04-03T00:47:11.166Z,73444.75
2023-04-03T00:47:43.639Z,73444.75
2023-04-03T00:48:21.382Z,73444.75
2023-04-03T00:48:53.724Z,73442.75
2023-04-03T00:49:26.102Z,73446.75
2023-04-03T00:50:01.533Z,73448.75
2023-04-03T00:50:36.337Z,73452.72
2023-04-03T00:51:15.010Z,73448.75
2023-04-03T00:51:47.746Z,73448.75
2023-04-03T00:52:22.870Z,73452.72
2023-04-03T00:52:58.062Z,73448.75
2023-04-03T00:53:32.814Z,73446.75
2023-04-03T00:54:06.857Z,73448.75
2023-04-03T00:54:42.007Z,73448.75
2023-04-03T00:55:17.491Z,73448.75
2023-04-03T00:55:51.172Z,73450.72
2023-04-03T00:56:28.183Z,73446.75
2023-04-03T00:57:00.724Z,73448.75
2023-04-03T00:57:33.493Z,73448.75
2023-04-03T00:58:10.248Z,73444.75
2023-04-03T00:58:45.698Z,73448.75
2023-04-03T00:59:26.464Z,73452.72
2023-04-03T01:00:02.547Z,73448.75
2023-04-03T01:00:36.116Z,73448.75
2023-04-03T01:01:15.046Z,73446.75
2023-04-03T01:01:47.710Z,73448.75
2023-04-03T01:02:20.104Z,73440.75
2023-04-03T01:02:55.319Z,73448.75
2023-04-03T01:03:27.809Z,73448.75
2023-04-03T01:04:01.764Z,73444.75
2023-04-03T01:04:38.411Z,73444.75
2023-04-03T01:05:11.358Z,73450.72
2023-04-03T01:05:43.769Z,73440.75
2023-04-03T01:06:21.049Z,73448.75
2023-04-03T01:06:57.123Z,73452.72
2023-04-03T01:07:32.015Z,73448.75
2023-04-03T01:08:07.474Z,73452.72
2023-04-03T01:08:40.150Z,73448.75
2023-04-03T01:09:12.632Z,73448.75
2023-04-03T01:09:48.474Z,73442.75
2023-04-03T01:10:23.588Z,73448.75
2023-04-03T01:10:56.421Z,73448.75
2023-04-03T01:11:32.848Z,73444.75
2023-04-03T01:12:17.912Z,73442.75
2023-04-03T01:12:51.382Z,73444.75
2023-04-03T01:13:29.822Z,73444.75
2023-04-03T01:14:03.117Z,73440.75
2023-04-03T01:14:35.566Z,73448.75
2023-04-03T01:15:14.497Z,73436.75
2023-04-03T01:15:47.045Z,73444.75
2023-04-03T01:16:19.853Z,73440.75
2023-04-03T01:16:57.113Z,73434.75
2023-04-03T01:17:31.799Z,73440.75
2023-04-03T01:18:05.924Z,73440.75
2023-04-03T01:18:43.413Z,73448.75
2023-04-03T01:19:17.725Z,73440.75
2023-04-03T01:19:57.354Z,73442.75
2023-04-03T01:21:10.852Z,73442.75
2023-04-03T01:22:12.241Z,73448.75
2023-04-03T01:22:53.084Z,73444.75
2023-04-03T01:23:41.405Z,73452.72
2023-04-03T01:24:23.866Z,73448.75
2023-04-03T01:24:56.856Z,73444.75
2023-04-03T01:25:32.129Z,73452.72
2023-04-03T01:26:07.870Z,73448.75
2023-04-03T01:26:40.777Z,73456.72
2023-04-03T01:27:16.010Z,73448.75
2023-04-03T01:27:48.375Z,73450.72
2023-04-03T01:28:23.455Z,73448.75
2023-04-03T01:28:56.332Z,73450.72
2023-04-03T01:29:31.455Z,73448.75
2023-04-03T01:30:04.537Z,73448.75
2023-04-03T01:30:42.940Z,73452.72
2023-04-03T01:31:23.277Z,73458.72
2023-04-03T01:31:59.430Z,73446.75
2023-04-03T01:32:34.464Z,73452.72
2023-04-03T01:33:06.867Z,73448.75
2023-04-03T01:33:39.848Z,73452.72
2023-04-03T01:34:15.163Z,73452.72
2023-04-03T01:34:47.518Z,73448.75
2023-04-03T01:35:19.901Z,73452.72
2023-04-03T01:35:54.873Z,73452.72
2023-04-03T01:36:30.490Z,73452.72
2023-04-03T01:37:03.325Z,73450.72
2023-04-03T01:37:38.282Z,73450.72
2023-04-03T01:38:11.591Z,73456.72
2023-04-03T01:38:43.969Z,73456.72
2023-04-03T01:39:16.438Z,73456.72
2023-04-03T01:39:51.435Z,73452.72
2023-04-03T01:40:23.792Z,73460.72
2023-04-03T01:40:56.227Z,73460.72
2023-04-03T01:41:29.140Z,73452.72
2023-04-03T01:42:12.718Z,73458.72
2023-04-03T01:42:48.506Z,73452.72
2023-04-03T01:43:20.878Z,73452.72
2023-04-03T01:43:56.062Z,73456.72
2023-04-03T01:44:28.517Z,73456.72
2023-04-03T01:45:03.702Z,73448.75
2023-04-03T01:45:36.100Z,73452.72
2023-04-03T01:46:09.124Z,73458.72
2023-04-03T01:46:44.909Z,73456.72
2023-04-03T01:47:19.977Z,73458.72
2023-04-03T01:47:52.528Z,73456.72
2023-04-03T01:48:27.770Z,73456.72
2023-04-03T01:49:00.496Z,73460.72
2023-04-03T01:49:32.845Z,73464.72
2023-04-03T01:50:08.686Z,73460.72
2023-04-03T01:50:41.051Z,73464.72
2023-04-03T01:51:13.668Z,73468.69
2023-04-03T01:51:48.717Z,73460.72
2023-04-03T01:52:21.267Z,73456.72
2023-04-03T01:52:53.695Z,73464.72
2023-04-03T01:53:28.824Z,73454.72
2023-04-03T01:54:01.574Z,73468.69
2023-04-03T01:54:34.092Z,73466.69
2023-04-03T01:55:10.269Z,73468.69
2023-04-03T01:55:42.836Z,73464.72
2023-04-03T01:56:15.586Z,73466.69
2023-04-03T01:56:50.592Z,73468.69
2023-04-03T01:57:24.209Z,73464.72
2023-04-03T01:57:59.182Z,73460.72
2023-04-03T01:58:31.594Z,73462.72
2023-04-03T01:59:04.002Z,73460.72
2023-04-03T01:59:39.104Z,73464.72
2023-04-03T02:00:13.838Z,73464.72
2023-04-03T02:00:47.536Z,73458.72
2023-04-03T02:01:22.541Z,73460.72
2023-04-03T02:01:55.048Z,73464.72
2023-04-03T02:02:30.744Z,73464.72
2023-04-03T02:03:06.002Z,73462.72
2023-04-03T02:03:38.386Z,73466.69
2023-04-03T02:04:11.045Z,73464.72
2023-04-03T02:04:46.118Z,73468.69
2023-04-03T02:05:18.487Z,73472.69
2023-04-03T02:05:51.509Z,73468.69
2023-04-03T02:06:26.536Z,73468.69
2023-04-03T02:06:59.076Z,73466.69
2023-04-03T02:07:31.453Z,73472.69
2023-04-03T02:08:06.462Z,73470.69
2023-04-03T02:08:38.999Z,73470.69
2023-04-03T02:09:12.422Z,73470.69
2023-04-03T02:09:47.330Z,73466.69
2023-04-03T02:10:19.693Z,73468.69
2023-04-03T02:10:52.558Z,73472.69
2023-04-03T02:11:27.521Z,73468.69
2023-04-03T02:11:59.881Z,73476.69
2023-04-03T02:12:33.393Z,73476.69
2023-04-03T02:13:08.374Z,73468.69
2023-04-03T02:13:41.208Z,73470.69
2023-04-03T02:14:13.929Z,73468.69
2023-04-03T02:14:48.871Z,73468.69
2023-04-03T02:15:22.240Z,73468.69
2023-04-03T02:15:54.653Z,73472.69
2023-04-03T02:16:29.954Z,73472.69
2023-04-03T02:17:02.499Z,73466.69
2023-04-03T02:17:37.604Z,73472.69
2023-04-03T02:18:13.024Z,73468.69
2023-04-03T02:18:45.535Z,73464.72
2023-04-03T02:19:18.036Z,73472.69
2023-04-03T02:19:53.053Z,73472.69
2023-04-03T02:20:25.443Z,73472.69
2023-04-03T02:20:57.806Z,73466.69
2023-04-03T02:21:32.782Z,73466.69
2023-04-03T02:22:06.182Z,73468.69
2023-04-03T02:22:38.580Z,73464.72
2023-04-03T02:23:13.602Z,73468.69
2023-04-03T02:23:46.171Z,73472.69
2023-04-03T02:24:18.515Z,73464.72
2023-04-03T02:24:53.557Z,73464.72
2023-04-03T02:25:27.211Z,73470.69
2023-04-03T02:26:07.338Z,73466.69
2023-04-03T02:26:42.282Z,73468.69
2023-04-03T02:27:14.697Z,73464.72
2023-04-03T02:27:47.081Z,73466.69
2023-04-03T02:28:22.028Z,73466.69
2023-04-03T02:28:54.409Z,73470.69
2023-04-03T02:29:26.803Z,73472.69
2023-04-03T02:29:59.824Z,73462.72
2023-04-03T02:30:35.236Z,73468.69
2023-04-03T02:31:08.460Z,73464.72
2023-04-03T02:31:41.854Z,73466.69
2023-04-03T02:32:16.875Z,73460.72
2023-04-03T02:32:52.888Z,73456.72
2023-04-03T02:33:25.360Z,73464.72
2023-04-03T02:34:00.349Z,73460.72
2023-04-03T02:34:32.887Z,73464.72
2023-04-03T02:35:07.640Z,73456.72
2023-04-03T02:35:43.126Z,73466.69
2023-04-03T02:36:15.624Z,73460.72
2023-04-03T02:36:51.008Z,73460.72
2023-04-03T02:37:28.550Z,73462.72
2023-04-03T02:38:01.059Z,73460.72
2023-04-03T02:38:33.914Z,73458.72
2023-04-03T02:39:09.249Z,73464.72
2023-04-03T02:39:41.764Z,73460.72
2023-04-03T02:40:14.117Z,73458.72
2023-04-03T02:40:49.090Z,73460.72
2023-04-03T02:41:22.298Z,73456.72
2023-04-03T02:41:56.627Z,73462.72
2023-04-03T02:42:33.726Z,73466.69
2023-04-03T02:43:06.253Z,73464.72
2023-04-03T02:43:40.389Z,73464.72
2023-04-03T02:44:15.814Z,73466.69
2023-04-03T02:44:48.175Z,73464.72
2023-04-03T02:45:20.525Z,73464.72
2023-04-03T02:45:56.027Z,73464.72
2023-04-03T02:46:28.529Z,73460.72
2023-04-03T02:47:02.025Z,73464.72
2023-04-03T02:47:36.989Z,73460.72
2023-04-03T02:48:12.018Z,73464.72
2023-04-03T02:48:47.047Z,73462.72
2023-04-03T02:49:19.633Z,73466.69
2023-04-03T02:49:53.913Z,73464.72
2023-04-03T02:50:28.885Z,73464.72
2023-04-03T02:51:02.255Z,73462.72
2023-04-03T02:51:34.729Z,73462.72
2023-04-03T02:52:09.736Z,73464.72
2023-04-03T02:52:42.218Z,73464.72
2023-04-03T02:53:14.719Z,73464.72
2023-04-03T02:53:49.767Z,73466.69
2023-04-03T02:54:29.832Z,73464.72
2023-04-03T02:55:07.735Z,73460.72
2023-04-03T02:55:40.094Z,73468.69
2023-04-03T02:56:12.491Z,73466.69
2023-04-03T02:56:47.451Z,73468.69
2023-04-03T02:57:20.904Z,73468.69
2023-04-03T02:57:53.438Z,73472.69
2023-04-03T02:58:28.533Z,73476.69
2023-04-03T02:59:03.617Z,73466.69
2023-04-03T02:59:36.490Z,73468.69
2023-04-03T03:00:13.268Z,73472.69
2023-04-03T03:00:45.753Z,73472.69
2023-04-03T03:01:18.133Z,73474.69
2023-04-03T03:01:53.204Z,73466.69
2023-04-03T03:02:25.654Z,73466.69
2023-04-03T03:02:58.100Z,73472.69
2023-04-03T03:03:35.707Z,73476.69
2023-04-03T03:04:08.076Z,73472.69
2023-04-03T03:04:40.472Z,73464.72
2023-04-03T03:05:15.741Z,73478.69
2023-04-03T03:05:49.326Z,73472.69
2023-04-03T03:06:21.695Z,73478.69
2023-04-03T03:06:56.662Z,73468.69
2023-04-03T03:07:28.993Z,73470.69
2023-04-03T03:08:01.535Z,73466.69
2023-04-03T03:08:36.631Z,73474.69
2023-04-03T03:09:09.052Z,73476.69
2023-04-03T03:09:43.987Z,73472.69
2023-04-03T03:10:16.683Z,73474.69
2023-04-03T03:10:49.028Z,73476.69
2023-04-03T03:11:23.985Z,73466.69
2023-04-03T03:11:56.420Z,73468.69
2023-04-03T03:12:28.775Z,73466.69
2023-04-03T03:13:05.052Z,73472.69
2023-04-03T03:13:37.441Z,73468.69
2023-04-03T03:14:09.959Z,73474.69
2023-04-03T03:14:44.960Z,73476.69
2023-04-03T03:15:18.503Z,73470.69
2023-04-03T03:15:50.997Z,73474.69
2023-04-03T03:16:23.983Z,73476.69
2023-04-03T03:16:59.026Z,73464.72
2023-04-03T03:17:31.431Z,73476.69
2023-04-03T03:18:04.081Z,73474.69
2023-04-03T03:18:41.711Z,73474.69
2023-04-03T03:19:14.083Z,73476.69
2023-04-03T03:19:47.296Z,73470.69
2023-04-03T03:20:22.433Z,73472.69
2023-04-03T03:20:57.002Z,73472.69
2023-04-03T03:21:29.497Z,73472.69
2023-04-03T03:22:05.466Z,73470.69
2023-04-03T03:22:37.826Z,73472.69
2023-04-03T03:23:10.322Z,73474.69
2023-04-03T03:23:45.432Z,73466.69
2023-04-03T03:24:17.842Z,73472.69
2023-04-03T03:24:52.786Z,73474.69
2023-04-03T03:25:25.300Z,73472.69
2023-04-03T03:25:58.710Z,73480.69
2023-04-03T03:26:33.767Z,73476.69
2023-04-03T03:27:08.132Z,73474.69
2023-04-03T03:27:40.562Z,73472.69
2023-04-03T03:28:16.042Z,73476.69
2023-04-03T03:28:48.394Z,73468.69
2023-04-03T03:29:21.049Z,73472.69
2023-04-03T03:29:56.118Z,73472.69
2023-04-03T03:30:28.472Z,73472.69
2023-04-03T03:31:01.588Z,73476.69
2023-04-03T03:31:34.075Z,73476.69
2023-04-03T03:32:09.113Z,73472.69
2023-04-03T03:32:41.498Z,73476.69
2023-04-03T03:33:13.903Z,73468.69
2023-04-03T03:33:51.646Z,73472.69
2023-04-03T03:34:25.040Z,73472.69
2023-04-03T03:34:57.471Z,73472.69
2023-04-03T03:35:32.575Z,73476.69
2023-04-03T03:36:05.316Z,73472.69
2023-04-03T03:36:40.321Z,73478.69
2023-04-03T03:37:12.887Z,73474.69
2023-04-03T03:37:47.931Z,73472.69
2023-04-03T03:38:20.473Z,73476.69
2023-04-03T03:38:52.924Z,73476.69
2023-04-03T03:39:27.978Z,73480.69
2023-04-03T03:40:00.559Z,73472.69
2023-04-03T03:40:33.049Z,73472.69
2023-04-03T03:41:08.198Z,73470.69
2023-04-03T03:41:41.418Z,73472.69
2023-04-03T03:42:13.973Z,73472.69
2023-04-03T03:42:48.906Z,73470.69
2023-04-03T03:43:21.722Z,73468.69
2023-04-03T03:43:55.934Z,73470.69
2023-04-03T03:44:31.897Z,73474.69
2023-04-03T03:45:05.129Z,73468.69
2023-04-03T03:45:37.592Z,73472.69
2023-04-03T03:46:12.990Z,73476.69
2023-04-03T03:46:45.558Z,73472.69
2023-04-03T03:47:18.117Z,73470.69
2023-04-03T03:47:53.145Z,73472.69
2023-04-03T03:48:26.358Z,73474.69
2023-04-03T03:49:04.116Z,73472.69
2023-04-03T03:49:36.913Z,73470.69
2023-04-03T03:50:10.654Z,73472.69
2023-04-03T03:50:45.634Z,73468.69
2023-04-03T03:51:18.690Z,73468.69
2023-04-03T03:51:52.016Z,73472.69
2023-04-03T03:52:27.379Z,73468.69
2023-04-03T03:53:00.647Z,73472.69
2023-04-03T03:53:33.144Z,73470.69
2023-04-03T03:54:13.847Z,73472.69
2023-04-03T03:54:46.351Z,73470.69
2023-04-03T03:55:19.194Z,73472.69
2023-04-03T03:55:59.273Z,73468.69
2023-04-03T03:56:34.150Z,73466.69
2023-04-03T03:57:06.871Z,73472.69
2023-04-03T03:57:41.975Z,73472.69
2023-04-03T03:58:14.484Z,73468.69
2023-04-03T03:58:47.179Z,73464.72
2023-04-03T03:59:22.528Z,73468.69
2023-04-03T03:59:55.021Z,73468.69
2023-04-03T04:00:27.544Z,73476.69
2023-04-03T04:01:06.958Z,73474.69
2023-04-03T04:01:42.094Z,73480.69
2023-04-03T04:02:15.027Z,73476.69
2023-04-03T04:02:51.193Z,73484.66
2023-04-03T04:03:27.462Z,73484.66
2023-04-03T04:04:05.149Z,73484.66
2023-04-03T04:04:38.195Z,73486.66
2023-04-03T04:05:11.168Z,73478.69
2023-04-03T04:05:46.407Z,73480.69
2023-04-03T04:06:19.464Z,73484.66
2023-04-03T04:06:51.863Z,73474.69
2023-04-03T04:07:29.306Z,73488.66
2023-04-03T04:08:02.780Z,73478.69
2023-04-03T04:08:35.245Z,73482.69
2023-04-03T04:09:10.446Z,73476.69
2023-04-03T04:09:42.899Z,73482.69
2023-04-03T04:10:16.046Z,73484.66
2023-04-03T04:10:52.624Z,73484.66
2023-04-03T04:11:25.152Z,73488.66
2023-04-03T04:11:59.416Z,73486.66
2023-04-03T04:12:34.360Z,73484.66
2023-04-03T04:13:06.759Z,73486.66
2023-04-03T04:13:39.149Z,73476.69
2023-04-03T04:14:14.777Z,73486.66
2023-04-03T04:14:48.692Z,73480.69
2023-04-03T04:15:22.963Z,73484.66
2023-04-03T04:15:58.362Z,73486.66
2023-04-03T04:16:30.847Z,73488.66
2023-04-03T04:17:07.147Z,73488.66
2023-04-03T04:17:42.588Z,73484.66
2023-04-03T04:18:19.008Z,73488.66
2023-04-03T04:18:53.432Z,73486.66
2023-04-03T04:19:31.683Z,73484.66
2023-04-03T04:20:04.894Z,73490.66
2023-04-03T04:20:37.926Z,73488.66
2023-04-03T04:21:13.173Z,73484.66
2023-04-03T04:21:46.753Z,73488.66
2023-04-03T04:22:19.619Z,73486.66
2023-04-03T04:22:54.725Z,73492.66
2023-04-03T04:23:29.324Z,73490.66
2023-04-03T04:24:04.117Z,73488.66
2023-04-03T04:24:39.824Z,73492.66
2023-04-03T04:25:13.563Z,73492.66
2023-04-03T04:25:46.788Z,73498.66
2023-04-03T04:26:22.556Z,73492.66
2023-04-03T04:26:54.910Z,73492.66
2023-04-03T04:27:28.272Z,73494.66
2023-04-03T04:28:03.677Z,73496.66
2023-04-03T04:28:36.143Z,73494.66
2023-04-03T04:29:10.626Z,73492.66
2023-04-03T04:29:46.678Z,73498.66
2023-04-03T04:30:19.411Z,73500.63
2023-04-03T04:30:55.609Z,73494.66
2023-04-03T04:31:33.780Z,73494.66
2023-04-03T04:32:06.535Z,73496.66
2023-04-03T04:32:41.917Z,73500.63
2023-04-03T04:33:15.351Z,73498.66
2023-04-03T04:33:51.619Z,73496.66
2023-04-03T04:34:24.655Z,73502.63
2023-04-03T04:34:59.751Z,73500.63
2023-04-03T04:35:36.659Z,73496.66
2023-04-03T04:36:10.637Z,73496.66
2023-04-03T04:36:43.716Z,73500.63
2023-04-03T04:37:16.360Z,73496.66
2023-04-03T04:37:51.980Z,73498.66
2023-04-03T04:38:24.671Z,73500.63
2023-04-03T04:38:59.701Z,73492.66
2023-04-03T04:39:36.985Z,73498.66
2023-04-03T04:40:10.767Z,73496.66
2023-04-03T04:40:43.259Z,73492.66
2023-04-03T04:41:18.972Z,73492.66
2023-04-03T04:41:51.630Z,73488.66
2023-04-03T04:42:24.039Z,73492.66
2023-04-03T04:42:59.178Z,73500.63
2023-04-03T04:43:31.633Z,73494.66
2023-04-03T04:44:06.683Z,73496.66
2023-04-03T04:44:39.862Z,73496.66
2023-04-03T04:45:12.353Z,73494.66
2023-04-03T04:45:49.419Z,73498.66
2023-04-03T04:46:25.039Z,73500.63
2023-04-03T04:47:01.988Z,73496.66
2023-04-03T04:47:37.158Z,73496.66
2023-04-03T04:48:10.647Z,73504.63
2023-04-03T04:48:43.067Z,73500.63
2023-04-03T04:49:19.062Z,73494.66
2023-04-03T04:49:51.476Z,73504.63
2023-04-03T04:50:26.799Z,73502.63
2023-04-03T04:51:03.036Z,73500.63
2023-04-03T04:51:48.286Z,73496.66
2023-04-03T04:52:28.444Z,73494.66
2023-04-03T04:53:00.884Z,73500.63
2023-04-03T04:53:33.456Z,73500.63
2023-04-03T04:54:08.642Z,73496.66
2023-04-03T04:54:41.143Z,73498.66
2023-04-03T04:55:13.812Z,73508.63
2023-04-03T04:55:49.114Z,73500.63
2023-04-03T04:56:22.052Z,73500.63
2023-04-03T04:56:54.904Z,73498.66
2023-04-03T04:57:30.311Z,73506.63
2023-04-03T04:58:04.889Z,73498.66
2023-04-03T04:58:40.156Z,73496.66
2023-04-03T04:59:13.559Z,73506.63
2023-04-03T04:59:46.069Z,73506.63
2023-04-03T05:00:22.257Z,73500.63
2023-04-03T05:01:00.126Z,73486.66
2023-04-03T05:01:32.890Z,73496.66
2023-04-03T05:02:16.417Z,73496.66
2023-04-03T05:02:50.392Z,73492.66
2023-04-03T05:03:25.217Z,73496.66
2023-04-03T05:04:00.170Z,73500.63
2023-04-03T05:04:32.897Z,73492.66
2023-04-03T05:05:13.720Z,73498.66
2023-04-03T05:05:48.926Z,73492.66
2023-04-03T05:06:21.414Z,73488.66
2023-04-03T05:06:56.565Z,73496.66
2023-04-03T05:07:32.609Z,73490.66
2023-04-03T05:08:09.485Z,73488.66
2023-04-03T05:08:44.840Z,73484.66
2023-04-03T05:09:17.609Z,73490.66
2023-04-03T05:09:54.519Z,73490.66
2023-04-03T05:10:26.946Z,73494.66
2023-04-03T05:10:59.800Z,73484.66
2023-04-03T05:11:36.123Z,73492.66
2023-04-03T05:12:10.598Z,73488.66
2023-04-03T05:12:47.981Z,73492.66
2023-04-03T05:13:23.203Z,73488.66
2023-04-03T05:13:55.611Z,73488.66
2023-04-03T05:14:32.585Z,73492.66
2023-04-03T05:15:10.887Z,73488.66
2023-04-03T05:15:46.014Z,73492.66
2023-04-03T05:16:18.686Z,73494.66
2023-04-03T05:16:53.994Z,73492.66
2023-04-03T05:17:31.547Z,73498.66
2023-04-03T05:18:05.029Z,73496.66
2023-04-03T05:18:37.466Z,73500.63
2023-04-03T05:19:17.661Z,73494.66
2023-04-03T05:19:50.147Z,73492.66
2023-04-03T05:20:24.379Z,73498.66
2023-04-03T05:21:02.022Z,73506.63
2023-04-03T05:21:34.413Z,73504.63
2023-04-03T05:22:12.007Z,73496.66
2023-04-03T05:22:47.083Z,73504.63
2023-04-03T05:23:20.147Z,73500.63
2023-04-03T05:23:53.439Z,73504.63
2023-04-03T05:24:29.406Z,73508.63
2023-04-03T05:25:01.807Z,73504.63
2023-04-03T05:25:34.813Z,73504.63
2023-04-03T05:26:10.156Z,73500.63
2023-04-03T05:26:42.655Z,73508.63
2023-04-03T05:27:15.580Z,73508.63
2023-04-03T05:27:54.073Z,73504.63
2023-04-03T05:28:27.236Z,73504.63
2023-04-03T05:29:00.372Z,73512.63
2023-04-03T05:29:35.571Z,73508.63
2023-04-03T05:30:10.284Z,73512.63
2023-04-03T05:30:47.340Z,73508.63
2023-04-03T05:31:19.801Z,73508.63
2023-04-03T05:31:52.708Z,73508.63
2023-04-03T05:32:29.031Z,73504.63
2023-04-03T05:33:15.337Z,73512.63
2023-04-03T05:33:57.349Z,73504.63
2023-04-03T05:34:29.766Z,73508.63
2023-04-03T05:35:02.828Z,73512.63
2023-04-03T05:35:40.535Z,73512.63
2023-04-03T05:36:17.570Z,73508.63
2023-04-03T05:36:56.098Z,73508.63
2023-04-03T05:37:28.870Z,73512.63
2023-04-03T05:38:02.658Z,73522.59
2023-04-03T05:38:38.526Z,73512.63
2023-04-03T05:39:11.106Z,73516.59
2023-04-03T05:39:47.294Z,73502.63
2023-04-03T05:40:22.561Z,73512.63
2023-04-03T05:40:57.970Z,73508.63
2023-04-03T05:41:33.013Z,73504.63
2023-04-03T05:42:05.762Z,73504.63
2023-04-03T05:42:40.818Z,73508.63
2023-04-03T05:43:13.382Z,73504.63
2023-04-03T05:43:50.681Z,73502.63
2023-04-03T05:44:23.629Z,73504.63
2023-04-03T05:45:00.002Z,73496.66
2023-04-03T05:45:32.571Z,73496.66
2023-04-03T05:46:05.674Z,73496.66
2023-04-03T05:46:40.706Z,73492.66
2023-04-03T05:47:15.241Z,73490.66
2023-04-03T05:47:48.559Z,73488.66
2023-04-03T05:48:23.756Z,73480.69
2023-04-03T05:48:56.227Z,73480.69
2023-04-03T05:49:34.362Z,73472.69
2023-04-03T05:50:07.571Z,73472.69
2023-04-03T05:50:42.682Z,73472.69
2023-04-03T05:51:27.321Z,73464.72
2023-04-03T05:52:02.327Z,73464.72
2023-04-03T05:52:38.585Z,73464.72
2023-04-03T05:53:19.713Z,73460.72
2023-04-03T05:53:54.570Z,73456.72
2023-04-03T05:54:30.765Z,73452.72
2023-04-03T05:55:21.143Z,73448.75
2023-04-03T05:55:56.358Z,73452.72
2023-04-03T05:56:29.845Z,73448.75
2023-04-03T05:57:04.870Z,73448.75
2023-04-03T05:57:37.529Z,73440.75
2023-04-03T05:58:11.746Z,73448.75
2023-04-03T05:58:47.555Z,73448.75
2023-04-03T05:59:20.423Z,73448.75
2023-04-03T05:59:54.964Z,73444.75
2023-04-03T06:00:31.551Z,73440.75
2023-04-03T06:01:07.955Z,73444.75
2023-04-03T06:01:43.714Z,73442.75
2023-04-03T06:02:17.757Z,73448.75
2023-04-03T06:02:54.936Z,73444.75
2023-04-03T06:03:29.986Z,73446.75
2023-04-03T06:04:05.371Z,73448.75
2023-04-03T06:04:37.982Z,73452.72
2023-04-03T06:05:12.821Z,73456.72
2023-04-03T06:05:47.979Z,73460.72
2023-04-03T06:06:23.426Z,73460.72
2023-04-03T06:07:00.895Z,73460.72
2023-04-03T06:07:33.282Z,73468.69
2023-04-03T06:08:05.671Z,73468.69
2023-04-03T06:08:41.524Z,73474.69
2023-04-03T06:09:13.967Z,73472.69
2023-04-03T06:09:46.341Z,73474.69
2023-04-03T06:10:21.499Z,73480.69
2023-04-03T06:10:54.067Z,73470.69
2023-04-03T06:11:29.663Z,73484.66
2023-04-03T06:12:03.041Z,73476.69
2023-04-03T06:12:36.420Z,73484.66
2023-04-03T06:13:11.378Z,73486.66
2023-04-03T06:13:43.708Z,73492.66
2023-04-03T06:14:18.763Z,73492.66
2023-04-03T06:14:51.270Z,73492.66
2023-04-03T06:15:23.924Z,73492.66
2023-04-03T06:15:59.724Z,73500.63
2023-04-03T06:16:32.089Z,73496.66
2023-04-03T06:17:05.659Z,73502.63
2023-04-03T06:17:41.277Z,73500.63
2023-04-03T06:18:14.493Z,73504.63
2023-04-03T06:18:49.470Z,73494.66
2023-04-03T06:19:22.127Z,73504.63
2023-04-03T06:20:00.741Z,73508.63
2023-04-03T06:20:33.131Z,73502.63
2023-04-03T06:21:08.985Z,73504.63
2023-04-03T06:21:43.914Z,73508.63
2023-04-03T06:22:16.762Z,73512.63
2023-04-03T06:22:51.962Z,73514.63
2023-04-03T06:23:24.322Z,73508.63
2023-04-03T06:23:56.678Z,73508.63
2023-04-03T06:24:31.979Z,73522.59
2023-04-03T06:25:06.104Z,73518.59
2023-04-03T06:25:41.806Z,73520.59
2023-04-03T06:26:14.144Z,73524.59
2023-04-03T06:26:46.863Z,73524.59
2023-04-03T06:27:21.892Z,73516.59
2023-04-03T06:27:56.641Z,73524.59
2023-04-03T06:28:31.642Z,73522.59
2023-04-03T06:29:04.061Z,73524.59
2023-04-03T06:29:39.013Z,73528.59
2023-04-03T06:30:12.582Z,73522.59
2023-04-03T06:30:44.957Z,73532.59
2023-04-03T06:31:19.994Z,73520.59
2023-04-03T06:31:52.786Z,73526.59
2023-04-03T06:32:25.159Z,73528.59
2023-04-03T06:33:00.586Z,73526.59
2023-04-03T06:33:33.010Z,73530.59
2023-04-03T06:34:06.790Z,73528.59
2023-04-03T06:34:43.595Z,73528.59
2023-04-03T06:35:16.107Z,73522.59
2023-04-03T06:35:48.447Z,73526.59
2023-04-03T06:36:24.303Z,73530.59
2023-04-03T06:36:59.241Z,73528.59
2023-04-03T06:37:34.248Z,73536.56
2023-04-03T06:38:10.617Z,73534.56
2023-04-03T06:38:45.834Z,73536.56
2023-04-03T06:39:21.035Z,73534.56
2023-04-03T06:39:56.104Z,73532.59
2023-04-03T06:40:28.555Z,73536.56
2023-04-03T06:41:03.534Z,73530.59
2023-04-03T06:41:37.130Z,73532.59
2023-04-03T06:42:12.294Z,73532.59
2023-04-03T06:42:53.589Z,73540.56
2023-04-03T06:43:29.077Z,73530.59
2023-04-03T06:44:01.516Z,73536.56
2023-04-03T06:44:35.736Z,73536.56
2023-04-03T06:45:12.874Z,73534.56
2023-04-03T06:45:45.471Z,73536.56